Time;durP1;ratioP1;P1;durP2;ratioP2;P2;SDS_P1;SDS_P2;PMS_P1;PMS_P2;Temp;Humidity;BMP_temperature;BMP_pressure;BME280_temperature;BME280_humidity;BME280_pressure;Samples;Min_cycle;Max_cycle;Signal;HPM_P1;HPM_P2
2023/07/19 00:01:06;;;;;;;4.65;2.70;;;17.00;92.30;;;;;;5006140;28;20279;-65
2023/07/19 00:03:33;;;;;;;3.05;2.05;;;17.10;92.00;;;;;;5008749;28;20219;-66
2023/07/19 00:06:03;;;;;;;8.82;2.17;;;17.30;91.90;;;;;;5011570;28;20193;-65
2023/07/19 00:08:31;;;;;;;4.43;2.10;;;17.40;91.90;;;;;;5004317;28;20548;-68
2023/07/19 00:10:59;;;;;;;3.47;1.85;;;17.40;92.20;;;;;;5010768;28;20210;-66
2023/07/19 00:13:26;;;;;;;2.97;1.98;;;16.90;92.80;;;;;;5008210;28;20577;-64
2023/07/19 00:15:54;;;;;;;2.92;2.28;;;16.70;93.60;;;;;;5013422;28;20199;-64
2023/07/19 00:18:21;;;;;;;7.07;2.58;;;16.30;94.70;;;;;;5007953;28;20189;-65
2023/07/19 00:20:48;;;;;;;4.20;2.33;;;16.30;95.50;;;;;;5012023;28;20665;-64
2023/07/19 00:23:16;;;;;;;3.37;2.17;;;16.40;95.60;;;;;;5014914;28;20200;-65
2023/07/19 00:25:45;;;;;;;4.82;2.15;;;16.50;95.30;;;;;;5013631;28;20555;-66
2023/07/19 00:28:12;;;;;;;5.18;2.78;;;16.60;95.50;;;;;;5009787;28;20723;-69
2023/07/19 00:30:40;;;;;;;4.47;2.25;;;16.50;95.50;;;;;;5008260;28;20193;-69
2023/07/19 00:33:08;;;;;;;4.22;2.70;;;16.50;96.10;;;;;;5009267;28;20229;-69
2023/07/19 00:35:40;;;;;;;3.22;2.55;;;16.30;96.10;;;;;;5012748;28;20196;-69
2023/07/19 00:38:07;;;;;;;4.23;2.77;;;16.00;97.80;;;;;;4991183;28;20198;-68
2023/07/19 00:40:35;;;;;;;7.83;2.37;;;15.90;99.00;;;;;;5004738;28;20196;-69
2023/07/19 00:43:08;;;;;;;4.80;2.80;;;16.00;99.90;;;;;;5008743;28;20215;-69
2023/07/19 00:45:51;;;;;;;5.23;2.37;;;15.80;98.90;;;;;;5008111;28;20189;-69
2023/07/19 00:48:19;;;;;;;5.17;2.67;;;15.90;99.90;;;;;;5018066;28;20208;-69
2023/07/19 00:50:52;;;;;;;5.23;2.70;;;16.20;99.20;;;;;;5010706;28;20202;-69
2023/07/19 00:53:21;;;;;;;4.72;2.78;;;16.50;98.40;;;;;;5006754;28;20213;-70
2023/07/19 00:55:50;;;;;;;8.50;3.40;;;16.80;98.50;;;;;;4992538;28;20263;-71
2023/07/19 00:58:18;;;;;;;3.72;2.45;;;17.00;99.00;;;;;;5006420;28;20200;-70
2023/07/19 01:00:47;;;;;;;5.10;2.67;;;17.20;97.10;;;;;;5010343;28;20189;-69
2023/07/19 01:03:14;;;;;;;5.22;2.60;;;17.40;96.70;;;;;;5005023;28;20189;-70
2023/07/19 01:05:43;;;;;;;4.70;1.90;;;17.50;96.40;;;;;;5004056;28;20212;-70
2023/07/19 01:08:10;;;;;;;2.53;2.00;;;17.60;96.10;;;;;;5008568;28;20564;-71
2023/07/19 01:10:38;;;;;;;2.38;1.95;;;17.50;96.30;;;;;;4989554;28;20198;-69
2023/07/19 01:13:08;;;;;;;5.50;1.90;;;17.40;96.40;;;;;;4995551;28;20296;-68
2023/07/19 01:15:36;;;;;;;3.67;2.25;;;17.40;96.60;;;;;;5009577;28;20188;-69
2023/07/19 01:18:04;;;;;;;3.63;2.17;;;17.30;96.70;;;;;;5008942;28;20193;-68
2023/07/19 01:20:32;;;;;;;3.10;2.15;;;17.20;97.20;;;;;;5012377;28;20617;-68
2023/07/19 01:22:59;;;;;;;3.25;2.10;;;17.20;96.80;;;;;;5005625;28;20561;-68
2023/07/19 01:25:26;;;;;;;4.85;2.60;;;17.20;97.20;;;;;;5008889;28;20279;-68
2023/07/19 01:27:53;;;;;;;5.53;2.55;;;17.10;97.00;;;;;;5008093;28;20550;-70
2023/07/19 01:30:20;;;;;;;5.25;2.65;;;17.10;98.10;;;;;;5007614;28;20256;-70
2023/07/19 01:32:47;;;;;;;5.70;2.25;;;16.90;97.30;;;;;;5007314;28;20265;-68
2023/07/19 01:35:15;;;;;;;5.95;2.17;;;16.90;98.30;;;;;;5007544;28;20189;-66
2023/07/19 01:37:42;;;;;;;6.65;2.65;;;16.90;97.90;;;;;;5001303;28;20199;-67
2023/07/19 01:40:12;;;;;;;3.10;2.57;;;16.80;98.80;;;;;;5011003;28;20197;-67
2023/07/19 01:42:40;;;;;;;6.13;2.83;;;16.50;98.40;;;;;;4990492;28;20200;-68
2023/07/19 01:45:08;;;;;;;4.18;2.25;;;16.20;99.40;;;;;;5024007;28;20303;-65
2023/07/19 01:47:35;;;;;;;3.40;2.90;;;16.10;99.90;;;;;;5006395;28;20541;-69
2023/07/19 01:50:03;;;;;;;6.07;4.25;;;15.90;99.90;;;;;;5007261;28;20662;-65
2023/07/19 01:52:30;;;;;;;11.87;5.40;;;15.80;99.90;;;;;;5007979;28;20232;-65
2023/07/19 01:54:57;;;;;;;8.90;5.37;;;16.10;99.90;;;;;;5007758;28;20673;-65
2023/07/19 01:57:24;;;;;;;16.17;8.47;;;16.10;99.90;;;;;;5008064;28;20203;-69
2023/07/19 01:59:55;;;;;;;7.17;3.70;;;16.20;99.90;;;;;;5008791;28;20284;-64
2023/07/19 02:06:22;;;;;;;3.80;2.97;;;15.80;99.90;;;;;;5012855;28;20186;-64
2023/07/19 02:08:50;;;;;;;8.67;3.33;;;15.40;99.90;;;;;;5009040;28;20244;-65
2023/07/19 02:11:17;;;;;;;5.97;3.30;;;15.10;99.90;;;;;;5007641;28;20719;-65
2023/07/19 02:13:45;;;;;;;4.57;3.17;;;14.90;99.90;;;;;;5007931;28;20212;-66
2023/07/19 02:16:11;;;;;;;5.17;3.40;;;14.60;99.90;;;;;;5003852;28;20643;-64
2023/07/19 02:18:38;;;;;;;14.03;9.27;;;14.70;99.90;;;;;;5006347;28;20232;-64
2023/07/19 02:21:06;;;;;;;4.93;3.77;;;14.70;99.90;;;;;;5008595;28;20283;-67
2023/07/19 02:23:34;;;;;;;4.73;3.50;;;14.80;99.90;;;;;;5005627;28;20193;-66
2023/07/19 02:26:01;;;;;;;4.00;2.83;;;15.00;99.90;;;;;;5007247;28;20881;-65
2023/07/19 02:28:28;;;;;;;6.50;3.30;;;15.30;99.90;;;;;;5007952;28;20216;-67
2023/07/19 02:30:55;;;;;;;3.47;2.73;;;15.50;99.90;;;;;;5010250;28;20222;-68
2023/07/19 02:33:22;;;;;;;5.40;2.90;;;15.50;99.90;;;;;;5006834;28;20649;-67
2023/07/19 02:35:56;;;;;;;6.40;3.30;;;15.20;99.90;;;;;;5005777;28;20201;-67
2023/07/19 02:38:26;;;;;;;10.07;5.70;;;15.20;99.90;;;;;;5007950;28;20215;-68
2023/07/19 02:41:01;;;;;;;10.03;5.50;;;15.20;99.90;;;;;;5007075;28;20200;-71
2023/07/19 02:43:29;;;;;;;7.33;3.93;;;15.20;99.90;;;;;;5007355;28;20668;-73
2023/07/19 02:45:56;;;;;;;5.03;3.00;;;15.30;99.90;;;;;;5009006;28;20661;-73
2023/07/19 02:48:24;;;;;;;4.47;3.87;;;15.20;99.90;;;;;;5007446;28;20201;-66
2023/07/19 02:50:51;;;;;;;5.00;3.53;;;15.10;99.90;;;;;;5004386;28;20212;-65
2023/07/19 02:53:19;;;;;;;5.97;4.23;;;15.30;99.90;;;;;;5008074;28;20568;-70
2023/07/19 02:55:46;;;;;;;6.53;3.40;;;15.30;99.90;;;;;;5007166;28;20200;-71
2023/07/19 02:58:14;;;;;;;4.67;2.87;;;15.20;99.90;;;;;;5008761;28;20235;-69
2023/07/19 03:00:42;;;;;;;4.37;3.60;;;15.50;99.90;;;;;;5009475;28;20412;-69
2023/07/19 03:03:11;;;;;;;5.93;3.08;;;15.40;99.90;;;;;;5001117;28;20657;-70
2023/07/19 03:05:42;;;;;;;4.77;3.20;;;15.50;99.90;;;;;;5005638;28;20815;-70
2023/07/19 03:08:09;;;;;;;3.50;2.60;;;15.60;99.90;;;;;;5003173;28;20203;-67
2023/07/19 03:10:37;;;;;;;5.57;2.80;;;15.70;99.90;;;;;;5012359;28;20205;-65
2023/07/19 03:13:04;;;;;;;4.33;2.70;;;15.50;99.90;;;;;;5005700;28;20204;-64
2023/07/19 03:15:34;;;;;;;4.00;2.87;;;15.50;99.90;;;;;;5008401;28;20768;-66
2023/07/19 03:18:02;;;;;;;3.70;2.97;;;15.50;99.90;;;;;;5011113;28;20193;-66
2023/07/19 03:20:31;;;;;;;5.37;3.20;;;15.70;99.90;;;;;;5010144;28;20288;-67
2023/07/19 03:23:00;;;;;;;4.50;3.13;;;15.60;99.90;;;;;;5010395;28;20232;-67
2023/07/19 03:25:28;;;;;;;5.67;3.63;;;15.70;99.90;;;;;;5001753;28;20688;-66
2023/07/19 03:27:56;;;;;;;3.57;3.10;;;15.70;99.90;;;;;;5012913;28;20212;-66
2023/07/19 03:30:24;;;;;;;6.27;2.80;;;15.90;99.90;;;;;;5015257;28;20223;-67
2023/07/19 03:32:51;;;;;;;4.57;2.90;;;15.60;99.90;;;;;;5013972;28;20727;-66
2023/07/19 03:35:20;;;;;;;4.97;2.67;;;15.50;99.90;;;;;;5007418;28;20205;-65
2023/07/19 03:37:49;;;;;;;4.83;3.30;;;15.40;99.90;;;;;;5013203;28;20300;-69
2023/07/19 03:40:17;;;;;;;5.37;3.03;;;15.50;99.90;;;;;;5018638;28;20212;-65
2023/07/19 03:42:44;;;;;;;8.30;3.37;;;15.70;99.90;;;;;;5016702;28;20661;-66
2023/07/19 03:45:11;;;;;;;9.00;4.60;;;15.70;99.90;;;;;;5014646;28;20213;-67
2023/07/19 03:47:39;;;;;;;4.35;3.60;;;15.90;99.90;;;;;;5012744;28;20235;-67
2023/07/19 03:50:07;;;;;;;4.30;3.10;;;16.00;99.90;;;;;;5012555;28;20195;-67
2023/07/19 03:52:35;;;;;;;4.07;3.10;;;16.10;99.90;;;;;;5008487;28;20275;-67
2023/07/19 03:55:04;;;;;;;5.87;3.20;;;16.20;99.90;;;;;;5012490;28;20637;-67
2023/07/19 03:57:33;;;;;;;6.03;2.50;;;16.30;99.90;;;;;;5014674;28;20261;-67
2023/07/19 04:00:01;;;;;;;5.38;2.85;;;16.10;99.90;;;;;;5011076;28;20707;-68
2023/07/19 04:02:30;;;;;;;3.07;2.60;;;16.20;99.90;;;;;;4994042;28;20204;-67
2023/07/19 04:04:57;;;;;;;4.80;2.97;;;16.20;99.90;;;;;;4993650;28;20315;-67
2023/07/19 04:07:25;;;;;;;4.43;2.63;;;16.30;99.90;;;;;;5009986;28;20203;-69
2023/07/19 04:09:52;;;;;;;4.27;3.17;;;16.40;99.90;;;;;;5008820;28;20201;-71
2023/07/19 04:12:21;;;;;;;4.53;2.60;;;16.60;99.90;;;;;;5009911;28;20228;-67
2023/07/19 04:14:48;;;;;;;3.35;2.55;;;16.70;99.90;;;;;;5017244;28;20565;-67
2023/07/19 04:17:20;;;;;;;4.70;2.63;;;16.90;99.90;;;;;;5006772;28;20625;-66
2023/07/19 04:19:47;;;;;;;4.28;2.80;;;17.10;99.90;;;;;;5010036;28;20192;-67
2023/07/19 04:22:15;;;;;;;3.80;2.42;;;17.30;99.90;;;;;;5013700;28;20200;-67
2023/07/19 04:24:42;;;;;;;5.80;3.40;;;17.50;99.90;;;;;;5009726;28;20662;-68
2023/07/19 04:27:09;;;;;;;7.88;3.97;;;17.50;99.90;;;;;;5015557;28;20216;-69
2023/07/19 04:29:36;;;;;;;7.13;3.00;;;17.40;99.90;;;;;;5012871;28;20541;-67
2023/07/19 04:32:03;;;;;;;5.15;2.90;;;17.30;99.90;;;;;;5009631;28;20438;-66
2023/07/19 04:34:30;;;;;;;4.38;2.85;;;17.20;99.90;;;;;;5012934;28;20716;-66
2023/07/19 04:36:57;;;;;;;5.43;3.72;;;17.30;99.90;;;;;;5008296;28;20200;-66
2023/07/19 04:39:25;;;;;;;5.13;3.35;;;17.60;99.90;;;;;;5008770;28;20243;-69
2023/07/19 04:41:52;;;;;;;5.43;3.60;;;17.70;99.90;;;;;;5006788;28;20216;-70
2023/07/19 04:44:19;;;;;;;8.57;3.55;;;17.70;99.90;;;;;;5009551;28;20197;-69
2023/07/19 04:46:47;;;;;;;11.15;4.60;;;17.80;99.90;;;;;;5013415;28;20676;-70
2023/07/19 04:49:15;;;;;;;7.30;4.13;;;18.00;99.90;;;;;;5011746;28;20197;-70
2023/07/19 04:51:43;;;;;;;8.85;4.20;;;18.20;99.90;;;;;;5014579;28;20547;-70
2023/07/19 04:54:10;;;;;;;8.82;4.03;;;18.20;99.90;;;;;;5014103;28;20216;-70
2023/07/19 04:56:37;;;;;;;5.80;3.42;;;18.30;99.90;;;;;;4994406;28;20204;-72
2023/07/19 04:59:05;;;;;;;10.70;3.63;;;18.20;99.90;;;;;;5013057;28;20197;-70
2023/07/19 05:01:32;;;;;;;3.45;2.20;;;18.20;99.90;;;;;;5013358;28;20197;-70
2023/07/19 05:03:59;;;;;;;2.72;2.20;;;18.10;99.90;;;;;;5011209;28;20224;-70
2023/07/19 05:06:26;;;;;;;3.35;2.20;;;18.10;99.90;;;;;;5009511;28;20684;-71
2023/07/19 05:08:53;;;;;;;6.15;3.50;;;18.30;99.90;;;;;;5008698;28;20633;-70
2023/07/19 05:11:20;;;;;;;4.35;2.10;;;18.80;99.90;;;;;;5008296;28;20207;-71
2023/07/19 05:13:48;;;;;;;10.85;5.28;;;19.30;99.90;;;;;;5009269;28;20583;-71
2023/07/19 05:16:18;;;;;;;5.82;3.42;;;19.70;99.90;;;;;;5011154;28;20680;-71
2023/07/19 05:18:45;;;;;;;9.15;3.72;;;20.20;99.90;;;;;;5012742;28;20204;-71
2023/07/19 05:21:13;;;;;;;5.78;3.83;;;20.80;99.80;;;;;;5009269;28;20227;-71
2023/07/19 05:23:41;;;;;;;13.30;4.65;;;20.90;99.40;;;;;;5011123;28;20564;-71
2023/07/19 05:26:08;;;;;;;9.35;4.13;;;21.10;98.60;;;;;;5010862;28;20689;-70
2023/07/19 05:28:35;;;;;;;6.45;2.92;;;21.10;98.00;;;;;;5009402;28;20181;-71
2023/07/19 05:31:08;;;;;;;6.32;2.80;;;21.00;97.00;;;;;;5008324;28;20255;-71
2023/07/19 05:33:35;;;;;;;5.15;2.95;;;20.20;96.80;;;;;;5006138;28;20602;-71
2023/07/19 05:36:03;;;;;;;5.13;2.70;;;20.10;97.20;;;;;;4990998;28;20193;-71
2023/07/19 05:38:30;;;;;;;4.72;2.67;;;20.00;97.30;;;;;;5007259;28;20196;-71
2023/07/19 05:41:01;;;;;;;7.57;3.60;;;20.10;97.20;;;;;;5018797;28;20247;-71
2023/07/19 05:43:32;;;;;;;5.95;2.70;;;20.30;97.00;;;;;;5008487;28;20201;-71
2023/07/19 05:46:07;;;;;;;3.85;2.00;;;20.00;97.00;;;;;;5005772;28;20193;-70
2023/07/19 05:48:35;;;;;;;8.13;3.38;;;19.60;97.50;;;;;;5002826;28;20284;-70
2023/07/19 05:51:04;;;;;;;4.03;2.25;;;20.00;97.60;;;;;;5008663;28;20657;-71
2023/07/19 05:53:31;;;;;;;4.13;1.95;;;20.10;97.00;;;;;;5009291;28;20209;-70
2023/07/19 05:55:58;;;;;;;6.75;2.90;;;20.20;96.10;;;;;;5007939;28;20200;-71
2023/07/19 05:58:27;;;;;;;4.10;2.20;;;20.20;96.50;;;;;;5009275;28;20193;-70
2023/07/19 06:00:54;;;;;;;7.07;2.50;;;20.10;96.20;;;;;;4996843;28;20201;-71
2023/07/19 06:03:21;;;;;;;5.57;2.33;;;20.20;96.20;;;;;;5008377;28;20229;-70
2023/07/19 06:05:48;;;;;;;5.78;2.40;;;20.40;95.80;;;;;;5005471;28;20479;-71
2023/07/19 06:08:15;;;;;;;6.30;2.45;;;20.30;95.40;;;;;;5008074;28;20273;-74
2023/07/19 06:10:51;;;;;;;4.72;2.70;;;20.50;96.10;;;;;;5005980;28;20193;-71
2023/07/19 06:13:19;;;;;;;8.82;2.83;;;21.30;96.80;;;;;;5006153;28;20228;-70
2023/07/19 06:15:46;;;;;;;6.30;2.67;;;22.40;94.40;;;;;;5010085;28;20255;-70
2023/07/19 06:18:13;;;;;;;5.53;2.50;;;22.20;93.20;;;;;;5008964;28;20476;-71
2023/07/19 06:20:40;;;;;;;4.57;2.50;;;21.50;92.00;;;;;;4993418;28;20247;-70
2023/07/19 06:23:08;;;;;;;6.25;2.67;;;21.20;93.40;;;;;;5006331;28;20225;-70
2023/07/19 06:25:35;;;;;;;5.97;2.53;;;21.10;93.00;;;;;;5009131;28;20192;-70
2023/07/19 06:28:02;;;;;;;5.28;2.67;;;20.60;92.80;;;;;;5007266;28;20251;-71
2023/07/19 06:30:31;;;;;;;4.03;2.45;;;20.30;93.60;;;;;;5008028;28;20193;-70
2023/07/19 06:32:58;;;;;;;10.98;3.88;;;20.10;93.70;;;;;;5002758;28;20776;-70
2023/07/19 06:35:25;;;;;;;10.73;3.47;;;20.10;93.30;;;;;;5008981;28;20252;-70
2023/07/19 06:37:52;;;;;;;6.32;4.05;;;20.10;94.30;;;;;;5005718;28;20193;-70
2023/07/19 06:40:19;;;;;;;5.82;2.97;;;20.50;94.00;;;;;;5007041;28;20189;-70
2023/07/19 06:42:47;;;;;;;10.65;4.80;;;20.70;94.20;;;;;;5002053;28;20189;-70
2023/07/19 06:45:14;;;;;;;7.63;3.40;;;21.10;94.00;;;;;;5007326;28;20288;-71
2023/07/19 06:47:41;;;;;;;9.43;3.78;;;21.40;91.90;;;;;;5004621;28;20587;-70
2023/07/19 06:50:08;;;;;;;5.93;3.22;;;21.30;93.40;;;;;;5007571;28;20228;-70
2023/07/19 06:52:36;;;;;;;8.02;3.92;;;21.10;93.60;;;;;;5008216;28;20192;-70
2023/07/19 06:55:04;;;;;;;10.57;3.70;;;20.90;93.50;;;;;;5010536;28;20193;-69
2023/07/19 06:57:31;;;;;;;7.85;4.05;;;20.90;94.00;;;;;;5009839;28;20197;-70
2023/07/19 06:59:58;;;;;;;6.32;3.63;;;21.30;94.40;;;;;;5010122;28;20231;-70
2023/07/19 07:02:25;;;;;;;7.07;3.30;;;21.50;93.70;;;;;;5006947;28;20301;-69
2023/07/19 07:04:52;;;;;;;7.30;4.55;;;21.70;93.00;;;;;;5005193;28;20307;-71
2023/07/19 07:07:19;;;;;;;5.88;3.33;;;21.50;93.20;;;;;;5013522;28;20229;-71
2023/07/19 07:09:47;;;;;;;6.53;4.07;;;21.90;93.40;;;;;;5009535;28;20200;-70
2023/07/19 07:12:14;;;;;;;7.18;3.70;;;23.90;94.40;;;;;;5016780;28;20189;-70
2023/07/19 07:14:41;;;;;;;8.23;3.45;;;25.90;94.00;;;;;;5007377;28;20216;-69
2023/07/19 07:17:08;;;;;;;6.45;3.78;;;26.90;88.50;;;;;;5009419;28;20538;-67
2023/07/19 07:19:36;;;;;;;5.72;3.95;;;25.70;84.80;;;;;;5010947;28;20209;-68
2023/07/19 07:22:03;;;;;;;7.07;3.70;;;27.70;90.60;;;;;;5011129;28;20838;-67
2023/07/19 07:24:30;;;;;;;9.30;4.13;;;28.60;78.70;;;;;;5013670;28;20196;-66
2023/07/19 07:26:57;;;;;;;6.25;3.80;;;28.00;76.90;;;;;;5009396;28;20775;-67
2023/07/19 07:29:24;;;;;;;6.45;3.40;;;27.10;75.90;;;;;;5008885;28;20543;-68
2023/07/19 07:31:51;;;;;;;8.23;4.10;;;26.30;77.60;;;;;;5005826;28;20292;-68
2023/07/19 07:34:18;;;;;;;6.57;3.70;;;25.80;76.70;;;;;;5010968;28;20319;-67
2023/07/19 07:36:47;;;;;;;5.25;3.17;;;26.50;78.30;;;;;;5008911;28;20696;-69
2023/07/19 07:39:13;;;;;;;8.75;4.15;;;26.50;72.90;;;;;;4993598;28;20200;-69
2023/07/19 07:41:41;;;;;;;9.25;4.38;;;26.90;74.10;;;;;;4989197;28;21772;-69
2023/07/19 07:44:07;;;;;;;7.68;5.05;;;26.80;75.10;;;;;;5006065;28;20200;-69
2023/07/19 07:46:35;;;;;;;7.78;3.28;;;26.10;72.40;;;;;;5005888;28;20299;-69
2023/07/19 07:49:03;;;;;;;8.30;3.40;;;25.90;74.20;;;;;;5007244;28;20245;-67
2023/07/19 07:51:31;;;;;;;5.93;3.05;;;25.50;72.50;;;;;;5013707;28;20201;-67
2023/07/19 07:53:58;;;;;;;7.00;3.17;;;24.80;72.50;;;;;;5002555;28;20699;-69
2023/07/19 07:56:25;;;;;;;6.72;2.95;;;23.90;74.40;;;;;;5003172;28;20271;-70
2023/07/19 07:58:52;;;;;;;8.13;3.35;;;24.00;74.50;;;;;;5005332;28;20191;-70
2023/07/19 08:01:19;;;;;;;6.30;3.38;;;24.20;74.90;;;;;;5007922;28;20202;-70
2023/07/19 08:03:46;;;;;;;8.20;3.17;;;23.90;75.40;;;;;;5008548;28;20304;-70
2023/07/19 08:06:14;;;;;;;6.75;2.83;;;23.90;74.50;;;;;;5010685;28;20205;-70
2023/07/19 08:08:41;;;;;;;6.10;3.30;;;23.60;76.20;;;;;;5006505;28;20651;-70
2023/07/19 08:11:09;;;;;;;4.80;2.97;;;23.70;76.00;;;;;;5013847;28;20692;-70
2023/07/19 08:13:36;;;;;;;11.48;4.07;;;23.30;75.80;;;;;;5008910;28;20684;-70
2023/07/19 08:16:06;;;;;;;19.70;4.65;;;23.80;77.40;;;;;;5004501;28;20266;-70
2023/07/19 08:18:34;;;;;;;11.27;4.22;;;25.70;96.30;;;;;;5002930;28;20208;-70
2023/07/19 08:21:02;;;;;;;10.30;3.75;;;26.60;75.50;;;;;;5010692;28;20192;-70
2023/07/19 08:23:29;;;;;;;14.77;4.18;;;27.10;73.50;;;;;;5005761;28;20270;-70
2023/07/19 08:25:57;;;;;;;6.95;4.20;;;27.70;70.70;;;;;;5002664;28;20597;-70
2023/07/19 08:28:24;;;;;;;8.85;3.35;;;27.80;71.60;;;;;;5011804;28;20661;-70
2023/07/19 08:30:52;;;;;;;7.30;3.42;;;28.60;71.00;;;;;;5007986;28;20193;-70
2023/07/19 08:33:24;;;;;;;8.00;3.03;;;28.50;65.80;;;;;;5005159;28;20322;-70
2023/07/19 08:35:51;;;;;;;6.53;3.47;;;28.20;67.90;;;;;;5007761;28;20201;-70
2023/07/19 08:38:18;;;;;;;11.00;3.30;;;28.70;67.80;;;;;;5004687;28;20597;-71
2023/07/19 08:41:06;;;;;;;14.65;3.53;;;28.60;64.10;;;;;;5007883;28;20207;-70
2023/07/19 08:43:37;;;;;;;6.50;3.53;;;27.70;63.90;;;;;;5003627;28;20733;-71
2023/07/19 08:46:04;;;;;;;6.10;3.70;;;27.30;64.60;;;;;;5004871;28;20212;-70
2023/07/19 08:48:33;;;;;;;7.00;3.28;;;26.60;66.40;;;;;;5007008;28;20201;-70
2023/07/19 08:51:01;;;;;;;11.45;6.45;;;25.20;65.40;;;;;;5008761;28;20295;-70
2023/07/19 08:53:28;;;;;;;8.85;3.65;;;25.60;66.70;;;;;;5006332;28;20213;-70
2023/07/19 08:55:56;;;;;;;4.80;2.47;;;25.80;67.70;;;;;;5011623;28;20182;-70
2023/07/19 08:58:24;;;;;;;8.93;3.67;;;26.50;67.30;;;;;;5007917;28;20282;-70
2023/07/19 09:00:51;;;;;;;12.57;4.00;;;28.10;68.10;;;;;;5011178;28;20838;-71
2023/07/19 09:03:18;;;;;;;8.27;2.83;;;28.80;64.20;;;;;;5009487;28;20331;-70
2023/07/19 09:05:46;;;;;;;6.03;1.75;;;30.10;63.10;;;;;;5010492;28;20796;-70
2023/07/19 09:08:14;;;;;;;4.40;2.28;;;31.80;62.10;;;;;;5010585;28;20267;-70
2023/07/19 09:10:45;;;;;;;4.20;2.80;;;30.60;54.80;;;;;;5002201;28;20201;-70
2023/07/19 09:13:22;;;;;;;7.00;3.45;;;31.20;57.10;;;;;;5002079;28;20208;-70
2023/07/19 09:15:49;;;;;;;6.20;2.78;;;31.60;53.80;;;;;;5007999;28;20720;-71
2023/07/19 09:18:17;;;;;;;7.03;3.72;;;31.90;54.50;;;;;;5009354;28;20197;-71
2023/07/19 09:20:44;;;;;;;6.80;2.90;;;31.50;52.70;;;;;;5008238;28;20185;-71
2023/07/19 09:23:15;;;;;;;5.38;2.95;;;30.30;50.90;;;;;;4999559;28;20200;-71
2023/07/19 09:25:53;;;;;;;6.40;2.50;;;28.90;53.20;;;;;;5004429;28;20193;-70
2023/07/19 09:28:22;;;;;;;9.00;4.13;;;28.30;53.70;;;;;;5009019;28;20201;-71
2023/07/19 09:31:07;;;;;;;4.78;2.30;;;27.60;56.10;;;;;;5007169;28;20220;-70
2023/07/19 09:33:55;;;;;;;5.25;2.15;;;28.20;55.80;;;;;;5005340;28;20546;-71
2023/07/19 09:36:22;;;;;;;10.95;3.30;;;28.90;53.90;;;;;;5008721;28;20221;-71
2023/07/19 09:38:51;;;;;;;6.90;2.17;;;29.70;53.50;;;;;;5006423;28;20208;-71
2023/07/19 09:41:18;;;;;;;9.13;2.72;;;29.60;53.70;;;;;;5011227;28;20592;-71
2023/07/19 09:43:47;;;;;;;8.05;3.63;;;31.90;53.00;;;;;;5007908;28;20197;-70
2023/07/19 09:46:14;;;;;;;4.78;2.10;;;30.90;48.70;;;;;;5004962;28;20205;-71
2023/07/19 09:48:41;;;;;;;7.15;2.63;;;30.20;50.50;;;;;;5004228;28;20186;-71
2023/07/19 09:51:09;;;;;;;3.53;1.90;;;30.70;48.50;;;;;;5002193;28;20204;-70
2023/07/19 09:53:38;;;;;;;6.45;2.03;;;29.00;45.70;;;;;;5004573;28;20549;-70
2023/07/19 09:56:09;;;;;;;3.13;1.70;;;28.10;50.50;;;;;;5004957;28;20902;-70
2023/07/19 09:58:36;;;;;;;3.25;2.10;;;27.20;49.10;;;;;;5004710;28;20189;-70
2023/07/19 10:01:03;;;;;;;3.83;1.60;;;27.40;49.50;;;;;;5002705;28;20246;-70
2023/07/19 10:03:30;;;;;;;4.78;1.60;;;26.60;48.80;;;;;;5006099;28;20264;-71
2023/07/19 10:05:58;;;;;;;5.45;2.58;;;27.30;51.80;;;;;;4999359;28;20300;-70
2023/07/19 10:08:25;;;;;;;8.23;2.78;;;27.60;50.50;;;;;;5007776;28;20185;-70
2023/07/19 10:10:57;;;;;;;6.28;2.47;;;28.30;50.80;;;;;;5004204;28;20284;-71
2023/07/19 10:13:31;;;;;;;14.20;4.65;;;28.50;50.70;;;;;;5001189;28;20592;-70
2023/07/19 10:15:59;;;;;;;9.00;1.90;;;28.00;50.90;;;;;;5001374;28;20587;-70
2023/07/19 10:18:29;;;;;;;5.78;2.40;;;28.10;50.80;;;;;;5003133;28;20589;-72
2023/07/19 10:21:05;;;;;;;3.38;2.03;;;28.50;49.90;;;;;;5006957;28;20212;-71
2023/07/19 10:23:34;;;;;;;3.88;2.10;;;28.90;50.70;;;;;;5003256;28;20272;-70
2023/07/19 10:26:06;;;;;;;5.38;2.50;;;29.60;50.40;;;;;;5005056;28;20216;-70
2023/07/19 10:28:33;;;;;;;4.13;2.35;;;28.50;45.70;;;;;;5007802;28;20235;-70
2023/07/19 10:31:03;;;;;;;3.55;2.10;;;27.90;48.20;;;;;;4999611;28;20720;-70
2023/07/19 10:33:54;;;;;;;6.05;2.15;;;28.50;49.70;;;;;;5002156;28;20232;-70
2023/07/19 10:36:27;;;;;;;6.03;2.45;;;28.00;44.30;;;;;;5003878;28;20207;-71
2023/07/19 10:38:55;;;;;;;8.90;2.40;;;27.40;48.70;;;;;;5000372;28;20190;-69
2023/07/19 10:41:22;;;;;;;4.97;2.55;;;26.90;49.30;;;;;;5009495;28;20688;-70
2023/07/19 10:43:49;;;;;;;5.53;2.75;;;25.90;52.00;;;;;;5002228;28;20204;-71
2023/07/19 10:46:21;;;;;;;6.15;2.33;;;25.70;52.70;;;;;;5000641;28;21196;-69
2023/07/19 10:48:50;;;;;;;10.20;2.95;;;25.20;52.60;;;;;;5002135;28;20204;-72
2023/07/19 10:51:18;;;;;;;3.80;2.58;;;23.80;55.30;;;;;;4996549;28;20207;-72
2023/07/19 10:53:50;;;;;;;5.38;3.08;;;24.10;58.20;;;;;;4999332;28;20208;-71
2023/07/19 10:56:18;;;;;;;5.20;3.20;;;24.10;57.30;;;;;;4997628;28;20612;-71
2023/07/19 10:58:47;;;;;;;8.32;2.60;;;23.50;59.60;;;;;;5001264;28;20207;-71
2023/07/19 11:01:17;;;;;;;6.97;2.88;;;23.30;60.80;;;;;;4999410;28;20193;-71
2023/07/19 11:03:46;;;;;;;6.28;2.70;;;23.00;60.70;;;;;;4996641;28;20275;-71
2023/07/19 11:06:14;;;;;;;6.20;2.70;;;23.70;63.10;;;;;;5003682;28;20928;-71
2023/07/19 11:08:41;;;;;;;5.85;2.97;;;23.70;62.60;;;;;;5002145;28;20213;-71
2023/07/19 11:11:11;;;;;;;5.28;2.42;;;23.80;61.80;;;;;;5001131;28;20247;-71
2023/07/19 11:13:38;;;;;;;8.35;2.60;;;24.60;63.60;;;;;;5000385;28;20572;-71
2023/07/19 11:16:05;;;;;;;4.93;3.00;;;24.80;64.50;;;;;;5003707;28;20221;-71
2023/07/19 11:18:38;;;;;;;5.10;2.20;;;25.00;60.00;;;;;;4998982;28;20657;-71
2023/07/19 11:21:06;;;;;;;9.68;2.97;;;24.80;59.30;;;;;;5002634;28;20185;-71
2023/07/19 11:23:41;;;;;;;5.47;2.55;;;24.30;60.10;;;;;;4999124;28;20424;-71
2023/07/19 11:26:14;;;;;;;7.40;2.67;;;24.60;60.00;;;;;;5000194;28;20204;-70
2023/07/19 11:28:44;;;;;;;5.05;2.70;;;24.90;61.40;;;;;;4996115;28;20196;-70
2023/07/19 11:31:31;;;;;;;6.55;2.63;;;25.30;60.00;;;;;;5000453;28;20309;-70
2023/07/19 11:34:16;;;;;;;4.85;2.85;;;24.50;58.60;;;;;;4998237;28;20708;-70
2023/07/19 11:36:44;;;;;;;3.42;2.20;;;24.70;61.60;;;;;;5005055;28;20197;-71
2023/07/19 11:39:15;;;;;;;4.63;2.45;;;24.80;60.40;;;;;;5005833;28;20264;-69
2023/07/19 11:41:43;;;;;;;6.95;2.80;;;25.70;61.00;;;;;;5006279;28;20193;-70
2023/07/19 11:44:18;;;;;;;5.38;2.50;;;26.20;59.80;;;;;;5004738;28;20197;-70
2023/07/19 11:46:46;;;;;;;5.00;2.83;;;26.90;58.90;;;;;;5007970;28;20199;-70
2023/07/19 11:49:13;;;;;;;6.05;2.75;;;26.20;55.20;;;;;;5006818;28;20719;-70
2023/07/19 11:51:41;;;;;;;8.65;2.72;;;25.60;59.90;;;;;;5005107;28;20603;-70
2023/07/19 11:54:08;;;;;;;5.05;2.60;;;25.50;58.50;;;;;;4989095;28;20194;-70
2023/07/19 11:56:35;;;;;;;6.95;2.58;;;26.20;60.00;;;;;;5003161;28;20673;-72
2023/07/19 11:59:03;;;;;;;10.73;2.65;;;26.20;56.50;;;;;;5005742;28;20532;-70
2023/07/19 12:01:31;;;;;;;6.70;2.72;;;26.60;60.00;;;;;;5019067;28;20801;-72
2023/07/19 12:03:59;;;;;;;5.18;2.53;;;26.70;56.50;;;;;;5003633;28;20224;-70
2023/07/19 12:06:29;;;;;;;4.90;2.60;;;27.40;58.30;;;;;;5006044;28;20589;-70
2023/07/19 12:08:56;;;;;;;6.93;3.03;;;26.40;58.10;;;;;;5006151;28;20196;-70
2023/07/19 12:11:24;;;;;;;7.15;2.72;;;27.00;58.80;;;;;;5005593;28;20201;-70
2023/07/19 12:13:51;;;;;;;5.88;2.97;;;26.80;56.40;;;;;;5007585;28;20204;-70
2023/07/19 12:16:18;;;;;;;5.13;2.90;;;25.90;55.40;;;;;;5007228;28;20223;-70
2023/07/19 12:18:45;;;;;;;5.55;3.08;;;26.20;58.50;;;;;;5002814;28;20195;-70
2023/07/19 12:21:12;;;;;;;7.47;4.00;;;26.50;58.00;;;;;;5005891;28;20208;-70
2023/07/19 12:23:40;;;;;;;12.05;5.45;;;26.80;57.90;;;;;;5004889;28;20529;-70
2023/07/19 12:26:09;;;;;;;8.27;4.30;;;26.60;58.50;;;;;;5005620;28;20196;-70
2023/07/19 12:28:36;;;;;;;5.53;4.13;;;26.50;57.30;;;;;;4999731;28;20215;-70
2023/07/19 12:31:04;;;;;;;10.38;5.80;;;27.00;56.40;;;;;;5000457;28;20803;-70
2023/07/19 12:33:31;;;;;;;9.32;6.18;;;27.40;56.60;;;;;;5000762;28;20752;-70
2023/07/19 12:35:58;;;;;;;11.27;6.05;;;27.20;56.80;;;;;;5002056;28;20781;-70
2023/07/19 12:38:25;;;;;;;7.10;4.50;;;27.00;53.90;;;;;;5019690;28;20259;-70
2023/07/19 12:40:52;;;;;;;7.68;4.05;;;26.80;55.30;;;;;;5003165;28;20201;-72
2023/07/19 12:43:20;;;;;;;7.68;3.72;;;26.20;55.30;;;;;;5002225;28;20276;-70
2023/07/19 12:45:47;;;;;;;10.48;3.83;;;26.50;55.90;;;;;;5003616;28;20290;-71
2023/07/19 12:48:14;;;;;;;5.60;3.30;;;26.90;56.60;;;;;;5001075;28;20553;-69
2023/07/19 12:50:40;;;;;;;10.25;3.85;;;27.20;57.70;;;;;;5003487;28;20553;-69
2023/07/19 12:53:07;;;;;;;7.55;3.63;;;27.50;54.00;;;;;;5002873;28;20205;-69
2023/07/19 12:55:34;;;;;;;10.52;3.90;;;26.50;54.00;;;;;;5004142;28;20357;-70